Alexander 3 — SW6137 — position and weather

sailwx.info

Track history (hours):
 
Tides and Currents Weather Stations Pressure Air Temp Water Temp Dewpoint Dewpoint Depression Visibility Wind Speed Wind Dir Waves Ship Positions

Alexander 3

Last reported at 2015-May-05 16:34 UTC. Time now 2015-May-06 00:22 UTC.
Position N 37°55' E 023°35'.

Length 38 m; draft 5.6 m.

Type: Tug. MMSI: 240733000.

Date/timePositionNaut miles runAvg speedWind from/ knotsBaromVisibWave heightAir tempDewpointWater temp
2015-May-05 16:34N 37°55' E 023°35'9 8.6
2015-May-05 15:33N 37°53' E 023°25'6 5.7
2015-May-05 14:33N 37°58' E 023°23'0 0.1
2015-May-05 13:32N 37°58' E 023°23'1 1.2
2015-May-05 12:33N 37°58' E 023°24'0 0.0
2015-May-05 11:33N 37°58' E 023°24'0 0.0
2015-May-05 10:33N 37°58' E 023°24'0 0.0
2015-May-05 09:32N 37°58' E 023°24'0 0.0
2015-May-05 08:33N 37°58' E 023°24'0 0.0
2015-May-05 07:34N 37°58' E 023°24'0 0.0
2015-May-05 06:31N 37°58' E 023°24'0 0.0
2015-May-05 05:33N 37°58' E 023°24'0 0.0
2015-May-05 04:33N 37°58' E 023°24'0 0.0
2015-May-05 03:33N 37°58' E 023°24'0 0.0
2015-May-05 02:33N 37°58' E 023°24'0 0.0
2015-May-05 01:34N 37°58' E 023°24'0 0.0
2015-May-05 00:34N 37°58' E 023°24'0 0.0
2015-May-04 23:33N 37°58' E 023°24'0 0.0
2015-May-04 22:33N 37°58' E 023°24'0 0.0
2015-May-04 21:34N 37°58' E 023°24'0 0.0
2015-May-04 20:34N 37°58' E 023°24'0 0.0
2015-May-04 19:33N 37°58' E 023°24'0 0.0
2015-May-04 18:33N 37°58' E 023°24'0 0.0
2015-May-04 17:33N 37°58' E 023°24'0 0.0
2015-May-04 16:33N 37°58' E 023°24'0 0.0
2015-May-04 15:33N 37°58' E 023°24'0 0.0
2015-May-04 14:33N 37°58' E 023°24'0 0.0
2015-May-04 13:33N 37°58' E 023°24'0 0.0
2015-May-04 12:33N 37°58' E 023°24'0 0.0
2015-May-04 11:33N 37°58' E 023°24'0 0.0
2015-May-04 10:33N 37°58' E 023°24'1 1.1
2015-May-04 09:33N 37°58' E 023°23'0 0.1
2015-May-04 08:33N 37°58' E 023°23'6 5.9
2015-May-04 07:33N 37°53' E 023°25'10 9.6
2015-May-04 06:33N 37°57' E 023°36'1 1.1
2015-May-04 05:33N 37°56' E 023°36'1 1.5
2015-May-04 04:33N 37°57' E 023°35'2 2.0
2015-May-04 03:33N 37°56' E 023°37'0 0.0
2015-May-03 05:16N 37°56' E 023°37'1 1.2
2015-May-03 04:33N 37°57' E 023°36'1 1.2
2015-May-03 03:33N 37°57' E 023°35'2 2.0
2015-May-03 02:33N 37°56' E 023°37'0 0.0
2015-May-03 01:33N 37°56' E 023°37'0 0.0
2015-May-03 00:33N 37°56' E 023°37'5 4.8
2015-May-02 23:33N 37°54' E 023°32'8 7.9
2015-May-02 22:33N 37°57' E 023°23'2 1.6
2015-May-02 21:33N 37°58' E 023°23'1 1.1
2015-May-02 20:33N 37°57' E 023°23'4 4.3
2015-May-02 19:33N 37°53' E 023°24'8 8.0
2015-May-02 18:33N 37°55' E 023°34'3 3.3
2015-May-02 17:33N 37°57' E 023°37'0 0.0
2015-May-02 16:33N 37°57' E 023°37'0 0.4
2015-May-02 15:33N 37°58' E 023°36'0 0.4
2015-May-02 14:33N 37°57' E 023°37'0 0.0
2015-May-02 13:33N 37°57' E 023°37'0 0.0
2015-May-02 12:34N 37°57' E 023°37'0 0.0
2015-May-02 11:33N 37°57' E 023°37'0 0.0
2015-May-02 10:33N 37°57' E 023°37'0 0.0
2015-May-02 09:33N 37°57' E 023°37'0 0.0
2015-May-02 08:33N 37°57' E 023°37'0 0.0
2015-May-02 07:33N 37°57' E 023°37'0 0.0
2015-May-02 06:33N 37°57' E 023°37'0 0.0
2015-May-02 05:33N 37°57' E 023°37'2 2.2
2015-May-02 04:34N 37°56' E 023°35'2 1.7
2015-May-02 03:33N 37°56' E 023°37'1 0.0
2015-May-01 01:34N 37°56' E 023°38'3 2.6
2015-May-01 00:33N 37°57' E 023°35'2 1.9
2015-Apr-30 23:33N 37°55' E 023°35'2 2.3
2015-Apr-30 22:34N 37°57' E 023°37'0 0.0
2015-Apr-30 21:34N 37°57' E 023°37'0 0.0
2015-Apr-30 20:33N 37°57' E 023°37'0 0.0
2015-Apr-30 19:34N 37°57' E 023°37'0 0.0
2015-Apr-30 18:33N 37°57' E 023°37'0 0.0
2015-Apr-30 17:34N 37°57' E 023°37'0 0.0
2015-Apr-30 16:33N 37°57' E 023°37'0 0.0
2015-Apr-30 15:34N 37°57' E 023°37'0 0.0
2015-Apr-30 14:34N 37°57' E 023°37'0 0.1
2015-Apr-30 13:33N 37°57' E 023°37'0 0.0
2015-Apr-30 12:33N 37°57' E 023°37'0 0.0
2015-Apr-30 11:33N 37°57' E 023°37'0 0.0
2015-Apr-30 10:34N 37°57' E 023°37'0 0.0
2015-Apr-30 09:33N 37°57' E 023°37'0 0.0
2015-Apr-30 08:34N 37°57' E 023°37'0 0.0
2015-Apr-30 07:34N 37°57' E 023°37'0 0.0
2015-Apr-30 06:33N 37°57' E 023°37'1 1.3
2015-Apr-30 05:33N 37°56' E 023°36'1 0.9
2015-Apr-30 04:33N 37°56' E 023°37'0 0.0
2015-Apr-28 10:33N 37°56' E 023°37'2 2.0
2015-Apr-28 09:33N 37°57' E 023°35'1 1.2
2015-Apr-28 08:34N 37°57' E 023°37'1 1.2
2015-Apr-28 07:33N 37°57' E 023°35'1 0.5
2015-Apr-28 06:34N 37°57' E 023°35'0 0.3
2015-Apr-28 05:34N 37°57' E 023°36'2 1.6
2015-Apr-28 04:33N 37°56' E 023°37'1 0.8
2015-Apr-28 03:33N 37°56' E 023°38'2 0.1
2015-Apr-27 10:33N 37°57' E 023°37'0 0.0
2015-Apr-27 09:33N 37°57' E 023°37'0 0.0
2015-Apr-27 08:33N 37°57' E 023°37'0 0.0
2015-Apr-27 07:33N 37°57' E 023°37'0 0.0
2015-Apr-27 06:33N 37°57' E 023°37'0 0.0
2015-Apr-27 05:33N 37°57' E 023°37'2 2.1
2015-Apr-27 04:33N 37°56' E 023°35'2 2.2
2015-Apr-27 03:33N 37°56' E 023°37'  
Track history (hours):
 
Tides and Currents Weather Stations Pressure Air Temp Water Temp Dewpoint Dewpoint Depression Visibility Wind Speed Wind Dir Waves Ship Positions

Alexander 3

Last reported at 2015-May-05 16:34 UTC. Time now 2015-May-06 00:22 UTC.
Position N 37°55' E 023°35'.

Length 38 m; draft 5.6 m.

Type: Tug. MMSI: 240733000.

Date/timePositionNaut miles runAvg speedWind from/ knotsBaromVisibWave heightAir tempDewpointWater temp
2015-May-05 16:34N 37°55' E 023°35'9 8.6
2015-May-05 15:33N 37°53' E 023°25'6 5.7
2015-May-05 14:33N 37°58' E 023°23'0 0.1
2015-May-05 13:32N 37°58' E 023°23'1 1.2
2015-May-05 12:33N 37°58' E 023°24'0 0.0
2015-May-05 11:33N 37°58' E 023°24'0 0.0
2015-May-05 10:33N 37°58' E 023°24'0 0.0
2015-May-05 09:32N 37°58' E 023°24'0 0.0
2015-May-05 08:33N 37°58' E 023°24'0 0.0
2015-May-05 07:34N 37°58' E 023°24'0 0.0
2015-May-05 06:31N 37°58' E 023°24'0 0.0
2015-May-05 05:33N 37°58' E 023°24'0 0.0
2015-May-05 04:33N 37°58' E 023°24'0 0.0
2015-May-05 03:33N 37°58' E 023°24'0 0.0
2015-May-05 02:33N 37°58' E 023°24'0 0.0
2015-May-05 01:34N 37°58' E 023°24'0 0.0
2015-May-05 00:34N 37°58' E 023°24'0 0.0
2015-May-04 23:33N 37°58' E 023°24'0 0.0
2015-May-04 22:33N 37°58' E 023°24'0 0.0
2015-May-04 21:34N 37°58' E 023°24'0 0.0
2015-May-04 20:34N 37°58' E 023°24'0 0.0
2015-May-04 19:33N 37°58' E 023°24'0 0.0
2015-May-04 18:33N 37°58' E 023°24'0 0.0
2015-May-04 17:33N 37°58' E 023°24'0 0.0
2015-May-04 16:33N 37°58' E 023°24'0 0.0
2015-May-04 15:33N 37°58' E 023°24'0 0.0
2015-May-04 14:33N 37°58' E 023°24'0 0.0
2015-May-04 13:33N 37°58' E 023°24'0 0.0
2015-May-04 12:33N 37°58' E 023°24'0 0.0
2015-May-04 11:33N 37°58' E 023°24'0 0.0
2015-May-04 10:33N 37°58' E 023°24'1 1.1
2015-May-04 09:33N 37°58' E 023°23'0 0.1
2015-May-04 08:33N 37°58' E 023°23'6 5.9
2015-May-04 07:33N 37°53' E 023°25'10 9.6
2015-May-04 06:33N 37°57' E 023°36'1 1.1
2015-May-04 05:33N 37°56' E 023°36'1 1.5
2015-May-04 04:33N 37°57' E 023°35'2 2.0
2015-May-04 03:33N 37°56' E 023°37'0 0.0
2015-May-03 05:16N 37°56' E 023°37'1 1.2
2015-May-03 04:33N 37°57' E 023°36'1 1.2
2015-May-03 03:33N 37°57' E 023°35'2 2.0
2015-May-03 02:33N 37°56' E 023°37'0 0.0
2015-May-03 01:33N 37°56' E 023°37'0 0.0
2015-May-03 00:33N 37°56' E 023°37'5 4.8
2015-May-02 23:33N 37°54' E 023°32'8 7.9
2015-May-02 22:33N 37°57' E 023°23'2 1.6
2015-May-02 21:33N 37°58' E 023°23'1 1.1
2015-May-02 20:33N 37°57' E 023°23'4 4.3
2015-May-02 19:33N 37°53' E 023°24'8 8.0
2015-May-02 18:33N 37°55' E 023°34'3 3.3
2015-May-02 17:33N 37°57' E 023°37'0 0.0
2015-May-02 16:33N 37°57' E 023°37'0 0.4
2015-May-02 15:33N 37°58' E 023°36'0 0.4
2015-May-02 14:33N 37°57' E 023°37'0 0.0
2015-May-02 13:33N 37°57' E 023°37'0 0.0
2015-May-02 12:34N 37°57' E 023°37'0 0.0
2015-May-02 11:33N 37°57' E 023°37'0 0.0
2015-May-02 10:33N 37°57' E 023°37'0 0.0
2015-May-02 09:33N 37°57' E 023°37'0 0.0
2015-May-02 08:33N 37°57' E 023°37'0 0.0
2015-May-02 07:33N 37°57' E 023°37'0 0.0
2015-May-02 06:33N 37°57' E 023°37'0 0.0
2015-May-02 05:33N 37°57' E 023°37'2 2.2
2015-May-02 04:34N 37°56' E 023°35'2 1.7
2015-May-02 03:33N 37°56' E 023°37'1 0.0
2015-May-01 01:34N 37°56' E 023°38'3 2.6
2015-May-01 00:33N 37°57' E 023°35'2 1.9
2015-Apr-30 23:33N 37°55' E 023°35'2 2.3
2015-Apr-30 22:34N 37°57' E 023°37'0 0.0
2015-Apr-30 21:34N 37°57' E 023°37'0 0.0
2015-Apr-30 20:33N 37°57' E 023°37'0 0.0
2015-Apr-30 19:34N 37°57' E 023°37'0 0.0
2015-Apr-30 18:33N 37°57' E 023°37'0 0.0
2015-Apr-30 17:34N 37°57' E 023°37'0 0.0
2015-Apr-30 16:33N 37°57' E 023°37'0 0.0
2015-Apr-30 15:34N 37°57' E 023°37'0 0.0
2015-Apr-30 14:34N 37°57' E 023°37'0 0.1
2015-Apr-30 13:33N 37°57' E 023°37'0 0.0
2015-Apr-30 12:33N 37°57' E 023°37'0 0.0
2015-Apr-30 11:33N 37°57' E 023°37'0 0.0
2015-Apr-30 10:34N 37°57' E 023°37'0 0.0
2015-Apr-30 09:33N 37°57' E 023°37'0 0.0
2015-Apr-30 08:34N 37°57' E 023°37'0 0.0
2015-Apr-30 07:34N 37°57' E 023°37'0 0.0
2015-Apr-30 06:33N 37°57' E 023°37'1 1.3
2015-Apr-30 05:33N 37°56' E 023°36'1 0.9
2015-Apr-30 04:33N 37°56' E 023°37'0 0.0
2015-Apr-28 10:33N 37°56' E 023°37'2 2.0
2015-Apr-28 09:33N 37°57' E 023°35'1 1.2
2015-Apr-28 08:34N 37°57' E 023°37'1 1.2
2015-Apr-28 07:33N 37°57' E 023°35'1 0.5
2015-Apr-28 06:34N 37°57' E 023°35'0 0.3
2015-Apr-28 05:34N 37°57' E 023°36'2 1.6
2015-Apr-28 04:33N 37°56' E 023°37'1 0.8
2015-Apr-28 03:33N 37°56' E 023°38'2 0.1
2015-Apr-27 10:33N 37°57' E 023°37'0 0.0
2015-Apr-27 09:33N 37°57' E 023°37'0 0.0
2015-Apr-27 08:33N 37°57' E 023°37'0 0.0
2015-Apr-27 07:33N 37°57' E 023°37'0 0.0
2015-Apr-27 06:33N 37°57' E 023°37'0 0.0
2015-Apr-27 05:33N 37°57' E 023°37'2 2.1
2015-Apr-27 04:33N 37°56' E 023°35'2 2.2
2015-Apr-27 03:33N 37°56' E 023°37'  

Dump ship's entire track history